createdAt,value
2024-02-07T00:00:28.941Z,9.80
2024-02-07T00:01:29.397Z,9.80
2024-02-07T00:02:30.389Z,9.80
2024-02-07T00:03:31.473Z,9.80
2024-02-07T00:04:32.622Z,9.80
2024-02-07T00:05:33.728Z,9.70
2024-02-07T00:06:34.344Z,9.70
2024-02-07T00:07:35.426Z,9.60
2024-02-07T00:08:36.589Z,9.60
2024-02-07T00:09:37.372Z,9.60
2024-02-07T00:10:38.396Z,9.60
2024-02-07T00:11:39.418Z,9.60
2024-02-07T00:12:40.385Z,9.60
2024-02-07T00:13:41.374Z,9.60
2024-02-07T00:14:42.390Z,9.60
2024-02-07T00:15:43.539Z,9.60
2024-02-07T00:16:44.480Z,9.60
2024-02-07T00:17:45.442Z,9.60
2024-02-07T00:18:46.516Z,9.60
2024-02-07T00:19:47.380Z,9.60
2024-02-07T00:20:48.364Z,9.60
2024-02-07T00:21:49.461Z,9.60
2024-02-07T00:22:50.487Z,9.60
2024-02-07T00:23:51.382Z,9.70
2024-02-07T00:24:52.371Z,9.70
2024-02-07T00:25:53.546Z,9.70
2024-02-07T00:26:54.389Z,9.70
2024-02-07T00:27:55.379Z,9.60
2024-02-07T00:28:56.492Z,9.60
2024-02-07T00:29:57.390Z,9.60
2024-02-07T00:30:58.568Z,9.70
2024-02-07T00:31:59.428Z,9.70
2024-02-07T00:33:00.438Z,9.70
2024-02-07T00:34:01.501Z,9.70
2024-02-07T00:35:02.617Z,9.80
2024-02-07T00:36:03.450Z,9.80
2024-02-07T00:37:04.382Z,9.70
2024-02-07T00:38:05.386Z,9.70
2024-02-07T00:39:06.403Z,9.70
2024-02-07T00:40:07.474Z,9.70
2024-02-07T00:41:08.390Z,9.70
2024-02-07T00:42:09.383Z,9.70
2024-02-07T00:43:10.452Z,9.70
2024-02-07T00:44:11.390Z,9.70
2024-02-07T00:45:12.606Z,9.70
2024-02-07T00:46:13.440Z,9.70
2024-02-07T00:47:14.377Z,9.70
2024-02-07T00:48:15.409Z,9.60
2024-02-07T00:49:16.550Z,9.50
2024-02-07T00:50:17.646Z,9.50
2024-02-07T00:51:18.386Z,9.50
2024-02-07T00:52:19.410Z,9.50
2024-02-07T00:53:20.392Z,9.50
2024-02-07T00:54:21.536Z,9.50
2024-02-07T00:55:22.482Z,9.40
2024-02-07T00:56:23.412Z,9.40
2024-02-07T00:57:24.457Z,9.40
2024-02-07T00:58:25.463Z,9.40
2024-02-07T00:59:26.477Z,9.40
2024-02-07T01:00:27.681Z,9.30
2024-02-07T01:01:28.646Z,9.30
2024-02-07T01:02:29.453Z,9.30
2024-02-07T01:03:30.468Z,9.20
2024-02-07T01:04:31.558Z,9.10
2024-02-07T01:05:32.871Z,9.10
2024-02-07T01:06:33.473Z,9.10
2024-02-07T01:07:34.444Z,9.10
2024-02-07T01:08:35.396Z,9.10
2024-02-07T01:09:36.461Z,9.10
2024-02-07T01:10:37.522Z,9.00
2024-02-07T01:11:38.410Z,9.10
2024-02-07T01:12:39.434Z,9.00
2024-02-07T01:13:40.442Z,9.00
2024-02-07T01:14:41.492Z,9.00
2024-02-07T01:15:42.693Z,9.00
2024-02-07T01:16:43.556Z,9.00
2024-02-07T01:17:44.551Z,9.00
2024-02-07T01:18:45.571Z,9.00
2024-02-07T01:19:46.575Z,8.90
2024-02-07T01:20:47.525Z,8.90
2024-02-07T01:21:48.494Z,8.80
2024-02-07T01:22:49.667Z,8.80
2024-02-07T01:23:50.533Z,8.80
2024-02-07T01:24:51.503Z,8.80
2024-02-07T01:25:52.628Z,8.80
2024-02-07T01:26:53.520Z,8.80
2024-02-07T01:27:54.534Z,8.80
2024-02-07T01:28:55.561Z,8.70
2024-02-07T01:29:56.553Z,8.70
2024-02-07T01:30:58.007Z,8.70
2024-02-07T01:31:59.505Z,8.70
2024-02-07T01:32:59.782Z,8.70
2024-02-07T01:34:00.921Z,8.70
2024-02-07T01:35:02.438Z,8.70
2024-02-07T01:36:02.541Z,8.70
2024-02-07T01:37:03.533Z,8.70
2024-02-07T01:38:04.525Z,8.70
2024-02-07T01:39:05.541Z,8.70
2024-02-07T01:40:06.738Z,8.70
2024-02-07T01:41:07.565Z,8.60
2024-02-07T01:42:08.552Z,8.50
2024-02-07T01:43:09.568Z,8.50
2024-02-07T01:44:10.542Z,8.50
2024-02-07T01:45:11.757Z,8.50
2024-02-07T01:46:12.599Z,8.50
2024-02-07T01:47:13.754Z,8.50
2024-02-07T01:48:14.590Z,8.50
2024-02-07T01:49:15.692Z,8.50
2024-02-07T01:50:16.655Z,8.50
2024-02-07T01:51:17.515Z,8.60
2024-02-07T01:52:18.745Z,8.60
2024-02-07T01:53:19.548Z,8.60
2024-02-07T01:54:20.598Z,8.60
2024-02-07T01:55:21.653Z,8.70
2024-02-07T01:56:22.584Z,8.70
2024-02-07T01:57:23.601Z,8.60
2024-02-07T01:58:24.676Z,8.60
2024-02-07T01:59:25.579Z,8.60
2024-02-07T02:00:26.773Z,8.60
2024-02-07T02:01:27.755Z,8.60
2024-02-07T02:02:28.694Z,8.60
2024-02-07T02:03:29.625Z,8.60
2024-02-07T02:04:30.627Z,8.60
2024-02-07T02:05:31.739Z,8.60
2024-02-07T02:06:32.635Z,8.60
2024-02-07T02:07:33.703Z,8.60
2024-02-07T02:08:34.612Z,8.50
2024-02-07T02:09:35.623Z,8.50
2024-02-07T02:10:36.747Z,8.50
2024-02-07T02:11:37.615Z,8.50
2024-02-07T02:12:38.634Z,8.50
2024-02-07T02:13:39.668Z,8.50
2024-02-07T02:14:40.637Z,8.50
2024-02-07T02:15:41.835Z,8.50
2024-02-07T02:16:42.696Z,8.50
2024-02-07T02:17:43.688Z,8.50
2024-02-07T02:18:44.637Z,8.50
2024-02-07T02:19:45.690Z,8.50
2024-02-07T02:20:47.006Z,8.50
2024-02-07T02:21:47.640Z,8.60
2024-02-07T02:22:49.194Z,8.50
2024-02-07T02:23:49.674Z,8.50
2024-02-07T02:24:50.639Z,8.50
2024-02-07T02:25:51.727Z,8.50
2024-02-07T02:26:52.687Z,8.50
2024-02-07T02:27:53.657Z,8.60
2024-02-07T02:28:55.042Z,8.60
2024-02-07T02:29:55.745Z,8.60
2024-02-07T02:30:56.880Z,8.60
2024-02-07T02:31:57.822Z,8.60
2024-02-07T02:32:58.659Z,8.60
2024-02-07T02:33:59.772Z,8.60
2024-02-07T02:35:00.884Z,8.60
2024-02-07T02:36:01.729Z,8.60
2024-02-07T02:37:02.677Z,8.60
2024-02-07T02:38:03.655Z,8.60
2024-02-07T02:39:04.680Z,8.60
2024-02-07T02:41:07.549Z,8.60
2024-02-07T02:42:07.693Z,8.60
2024-02-07T02:43:08.787Z,8.60
2024-02-07T02:44:09.784Z,8.60
2024-02-07T02:45:10.881Z,8.60
2024-02-07T02:46:11.727Z,8.60
2024-02-07T02:47:12.696Z,8.70
2024-02-07T02:48:14.349Z,8.70
2024-02-07T02:49:14.719Z,8.70
2024-02-07T02:50:15.798Z,8.70
2024-02-07T02:51:16.740Z,8.70
2024-02-07T02:52:17.720Z,8.80
2024-02-07T02:53:18.682Z,8.80
2024-02-07T02:54:19.725Z,8.80
2024-02-07T02:55:20.782Z,8.80
2024-02-07T02:56:21.743Z,8.80
2024-02-07T02:57:22.688Z,8.70
2024-02-07T02:58:32.788Z,8.70
2024-02-07T02:59:24.758Z,8.70
2024-02-07T03:00:25.904Z,8.70
2024-02-07T03:01:26.803Z,8.70
2024-02-07T03:02:27.708Z,8.70
2024-02-07T03:03:28.815Z,8.80
2024-02-07T03:04:29.747Z,8.80
2024-02-07T03:05:30.845Z,8.80
2024-02-07T03:06:31.783Z,8.80
2024-02-07T03:07:32.778Z,8.80
2024-02-07T03:08:33.693Z,8.80
2024-02-07T03:09:34.730Z,8.80
2024-02-07T03:10:35.755Z,8.80
2024-02-07T03:11:36.712Z,8.80
2024-02-07T03:12:37.700Z,8.80
2024-02-07T03:13:39.011Z,8.80
2024-02-07T03:14:39.726Z,8.80
2024-02-07T03:15:40.922Z,8.90
2024-02-07T03:16:41.751Z,8.90
2024-02-07T03:17:42.753Z,8.90
2024-02-07T03:18:43.884Z,8.90
2024-02-07T03:19:44.797Z,8.90
2024-02-07T03:20:45.759Z,8.90
2024-02-07T03:21:46.730Z,8.90
2024-02-07T03:22:47.750Z,8.90
2024-02-07T03:23:48.671Z,8.90
2024-02-07T03:24:49.661Z,9.00
2024-02-07T03:25:50.777Z,9.00
2024-02-07T03:26:51.686Z,9.00
2024-02-07T03:27:52.729Z,9.00
2024-02-07T03:28:53.831Z,9.00
2024-02-07T03:29:54.856Z,9.00
2024-02-07T03:30:55.921Z,9.00
2024-02-07T03:31:56.761Z,9.00
2024-02-07T03:32:57.810Z,9.00
2024-02-07T03:33:58.779Z,8.90
2024-02-07T03:34:59.753Z,8.90
2024-02-07T03:36:00.764Z,8.90
2024-02-07T03:37:01.785Z,8.90
2024-02-07T03:38:02.796Z,9.00
2024-02-07T03:39:03.755Z,9.10
2024-02-07T03:40:04.732Z,9.10
2024-02-07T03:41:05.743Z,9.10
2024-02-07T03:42:06.744Z,9.10
2024-02-07T03:43:07.871Z,9.10
2024-02-07T03:44:08.743Z,9.00
2024-02-07T03:45:09.958Z,9.00
2024-02-07T03:46:13.274Z,9.00
2024-02-07T03:47:11.889Z,9.00
2024-02-07T03:48:12.890Z,8.90
2024-02-07T03:49:13.880Z,8.90
2024-02-07T03:50:14.805Z,8.90
2024-02-07T03:51:15.752Z,8.90
2024-02-07T03:52:16.778Z,8.90
2024-02-07T03:53:17.791Z,8.90
2024-02-07T03:54:18.755Z,8.90
2024-02-07T03:55:19.908Z,8.90
2024-02-07T03:56:20.775Z,8.90
2024-02-07T03:57:21.768Z,8.90
2024-02-07T03:58:22.797Z,8.90
2024-02-07T03:59:23.787Z,8.90
2024-02-07T04:00:24.972Z,8.90
2024-02-07T04:01:25.838Z,8.90
2024-02-07T04:02:26.793Z,8.90
2024-02-07T04:03:27.807Z,8.90
2024-02-07T04:04:29.040Z,8.90
2024-02-07T04:05:29.864Z,8.90
2024-02-07T04:06:30.843Z,8.90
2024-02-07T04:07:32.057Z,9.00
2024-02-07T04:09:33.832Z,9.10
2024-02-07T04:10:34.839Z,9.10
2024-02-07T04:11:35.809Z,9.10
2024-02-07T04:12:36.836Z,9.10
2024-02-07T04:13:37.861Z,9.10
2024-02-07T04:14:40.777Z,9.10
2024-02-07T04:15:40.054Z,9.10
2024-02-07T04:16:40.854Z,9.10
2024-02-07T04:17:41.855Z,9.10
2024-02-07T04:18:42.938Z,9.10
2024-02-07T04:19:43.834Z,9.10
2024-02-07T04:20:44.820Z,9.10
2024-02-07T04:21:45.876Z,9.10
2024-02-07T04:22:46.962Z,9.00
2024-02-07T04:23:47.825Z,9.00
2024-02-07T04:24:48.821Z,9.00
2024-02-07T04:25:49.904Z,9.00
2024-02-07T04:26:50.835Z,9.00
2024-02-07T04:27:51.810Z,8.90
2024-02-07T04:28:52.919Z,8.90
2024-02-07T04:29:53.836Z,8.90
2024-02-07T04:30:55.068Z,8.90
2024-02-07T04:31:55.867Z,8.50
2024-02-07T04:32:56.886Z,8.20
2024-02-07T04:33:57.943Z,7.80
2024-02-07T04:34:58.978Z,7.60
2024-02-07T04:35:59.892Z,7.40
2024-02-07T04:37:00.886Z,7.40
2024-02-07T04:38:01.937Z,7.30
2024-02-07T04:39:02.914Z,7.20
2024-02-07T04:40:03.898Z,7.20
2024-02-07T04:41:04.898Z,7.10
2024-02-07T04:42:05.829Z,7.10
2024-02-07T04:43:06.878Z,7.10
2024-02-07T04:44:07.867Z,7.00
2024-02-07T04:45:09.075Z,7.00
2024-02-07T04:46:09.942Z,7.00
2024-02-07T04:47:10.882Z,6.90
2024-02-07T04:48:12.174Z,6.90
2024-02-07T04:49:12.974Z,6.90
2024-02-07T04:50:14.035Z,6.70
2024-02-07T04:51:14.894Z,6.50
2024-02-07T04:52:15.931Z,6.40
2024-02-07T04:53:16.924Z,6.40
2024-02-07T04:54:17.938Z,6.30
2024-02-07T04:55:18.995Z,6.30
2024-02-07T04:56:19.920Z,6.20
2024-02-07T04:57:20.926Z,6.20
2024-02-07T04:58:21.929Z,6.20
2024-02-07T04:59:22.941Z,6.20
2024-02-07T05:00:24.118Z,6.20
2024-02-07T05:01:24.971Z,6.20
2024-02-07T05:02:25.948Z,6.10
2024-02-07T05:03:26.973Z,6.10
2024-02-07T05:04:27.949Z,6.00
2024-02-07T05:05:29.113Z,5.90
2024-02-07T05:06:29.906Z,5.80
2024-02-07T05:07:31.025Z,5.70
2024-02-07T05:08:31.981Z,5.60
2024-02-07T05:09:32.954Z,5.50
2024-02-07T05:10:34.147Z,5.50
2024-02-07T05:11:34.970Z,5.40
2024-02-07T05:12:35.911Z,5.30
2024-02-07T05:13:36.968Z,5.30
2024-02-07T05:14:37.926Z,5.30
2024-02-07T05:15:39.108Z,5.30
2024-02-07T05:16:39.937Z,5.30
2024-02-07T05:17:40.994Z,5.10
2024-02-07T05:18:42.044Z,5.10
2024-02-07T05:19:43.025Z,5.10
2024-02-07T05:20:43.951Z,5.00
2024-02-07T05:21:44.920Z,5.00
2024-02-07T05:22:45.965Z,5.00
2024-02-07T05:23:46.999Z,5.00
2024-02-07T05:24:47.937Z,5.00
2024-02-07T05:25:49.065Z,5.00
2024-02-07T05:26:49.928Z,5.00
2024-02-07T05:27:50.936Z,4.90
2024-02-07T05:28:52.087Z,4.90
2024-02-07T05:29:52.939Z,4.80
2024-02-07T05:30:54.124Z,4.80
2024-02-07T05:31:55.852Z,4.70
2024-02-07T05:32:56.100Z,4.70
2024-02-07T05:33:57.099Z,4.70
2024-02-07T05:34:57.979Z,4.70
2024-02-07T05:35:59.034Z,4.70
2024-02-07T05:36:59.958Z,4.60
2024-02-07T05:38:01.008Z,4.60
2024-02-07T05:39:01.990Z,4.60
2024-02-07T05:40:02.975Z,4.60
2024-02-07T05:41:04.064Z,4.60
2024-02-07T05:42:04.929Z,4.50
2024-02-07T05:43:05.946Z,4.50
2024-02-07T05:44:06.979Z,4.50
2024-02-07T05:45:08.137Z,4.50
2024-02-07T05:46:08.943Z,4.50
2024-02-07T05:47:09.962Z,4.40
2024-02-07T05:48:10.979Z,4.30
2024-02-07T05:49:12.023Z,4.20
2024-02-07T05:50:13.001Z,4.10
2024-02-07T05:51:13.967Z,4.10
2024-02-07T05:52:14.984Z,4.10
2024-02-07T05:53:15.950Z,4.10
2024-02-07T05:54:16.977Z,4.00
2024-02-07T05:55:18.014Z,4.00
2024-02-07T05:56:18.997Z,4.00
2024-02-07T05:57:19.984Z,4.00
2024-02-07T05:58:21.793Z,3.90
2024-02-07T05:59:21.961Z,3.90
2024-02-07T06:00:23.211Z,3.90
2024-02-07T06:01:24.080Z,3.80
2024-02-07T06:02:24.989Z,3.80
2024-02-07T06:03:26.215Z,3.70
2024-02-07T06:04:27.180Z,3.70
2024-02-07T06:05:28.023Z,3.60
2024-02-07T06:06:29.098Z,3.60
2024-02-07T06:07:30.009Z,3.60
2024-02-07T06:08:31.001Z,3.60
2024-02-07T06:09:31.970Z,3.50
2024-02-07T06:10:33.028Z,3.50
2024-02-07T06:11:34.009Z,3.50
2024-02-07T06:12:34.977Z,3.50
2024-02-07T06:13:36.052Z,3.50
2024-02-07T06:14:36.989Z,3.50
2024-02-07T06:15:38.178Z,3.50
2024-02-07T06:16:41.708Z,3.40
2024-02-07T06:17:40.014Z,3.40
2024-02-07T06:18:41.094Z,3.40
2024-02-07T06:19:42.156Z,3.30
2024-02-07T06:20:43.175Z,3.30
2024-02-07T06:21:44.019Z,3.30
2024-02-07T06:22:44.976Z,3.30
2024-02-07T06:23:46.008Z,3.30
2024-02-07T06:24:47.053Z,3.30
2024-02-07T06:25:48.166Z,3.30
2024-02-07T06:26:48.979Z,3.30
2024-02-07T06:27:49.988Z,3.20
2024-02-07T06:28:51.107Z,3.20
2024-02-07T06:29:51.996Z,3.20
2024-02-07T06:30:53.206Z,3.20
2024-02-07T06:31:54.104Z,3.20
2024-02-07T06:32:55.095Z,3.20
2024-02-07T06:33:56.112Z,3.20
2024-02-07T06:34:57.048Z,3.10
2024-02-07T06:35:58.016Z,3.10
2024-02-07T06:36:59.026Z,3.00
2024-02-07T06:38:00.099Z,3.00
2024-02-07T06:39:01.034Z,3.00
2024-02-07T06:40:02.144Z,3.00
2024-02-07T06:41:03.082Z,3.00
2024-02-07T06:42:04.014Z,3.00
2024-02-07T06:43:05.040Z,3.00
2024-02-07T06:44:06.074Z,3.00
2024-02-07T06:45:07.248Z,2.90
2024-02-07T06:46:08.032Z,2.90
2024-02-07T06:47:09.022Z,2.80
2024-02-07T06:48:10.099Z,2.80
2024-02-07T06:49:11.211Z,2.80
2024-02-07T06:50:12.150Z,2.80
2024-02-07T06:51:13.062Z,2.80
2024-02-07T06:52:14.084Z,2.80
2024-02-07T06:53:15.044Z,2.80
2024-02-07T06:54:16.056Z,2.70
2024-02-07T06:55:17.092Z,2.70
2024-02-07T06:56:18.160Z,2.70
2024-02-07T06:57:19.058Z,2.70
2024-02-07T06:58:20.101Z,2.70
2024-02-07T06:59:21.040Z,2.70
2024-02-07T07:00:22.272Z,2.60
2024-02-07T07:01:23.197Z,2.60
2024-02-07T07:02:24.112Z,2.60
2024-02-07T07:03:25.132Z,2.50
2024-02-07T07:04:26.192Z,2.40
2024-02-07T07:05:27.040Z,2.40
2024-02-07T07:06:28.198Z,2.40
2024-02-07T07:07:29.271Z,2.40
2024-02-07T07:08:30.165Z,2.40
2024-02-07T07:09:31.174Z,2.40
2024-02-07T07:10:32.284Z,2.40
2024-02-07T07:11:33.186Z,2.40
2024-02-07T07:12:34.140Z,2.40
2024-02-07T07:13:35.206Z,2.40
2024-02-07T07:14:36.155Z,2.40
2024-02-07T07:15:37.295Z,2.40
2024-02-07T07:16:38.168Z,2.40
2024-02-07T07:17:39.173Z,2.30
2024-02-07T07:18:40.104Z,2.30
2024-02-07T07:19:41.180Z,2.30
2024-02-07T07:20:42.230Z,2.30
2024-02-07T07:21:43.178Z,2.30
2024-02-07T07:22:46.793Z,2.30
2024-02-07T07:23:45.193Z,2.30
2024-02-07T07:24:46.225Z,2.30
2024-02-07T07:25:47.235Z,2.30
2024-02-07T07:26:48.174Z,2.30
2024-02-07T07:27:49.171Z,2.30
2024-02-07T07:28:50.266Z,2.30
2024-02-07T07:29:51.118Z,2.30
2024-02-07T07:30:52.328Z,2.30
2024-02-07T07:31:53.211Z,2.30
2024-02-07T07:32:54.186Z,2.30
2024-02-07T07:33:55.282Z,2.30
2024-02-07T07:34:56.285Z,2.30
2024-02-07T07:35:57.315Z,2.30
2024-02-07T07:36:58.188Z,2.30
2024-02-07T07:37:59.308Z,2.30
2024-02-07T07:39:00.210Z,2.30
2024-02-07T07:40:01.218Z,2.20
2024-02-07T07:41:02.359Z,2.20
2024-02-07T07:42:03.190Z,2.20
2024-02-07T07:43:04.141Z,2.30
2024-02-07T07:44:05.245Z,2.30
2024-02-07T07:45:06.372Z,2.30
2024-02-07T07:46:07.161Z,2.30
2024-02-07T07:47:08.300Z,2.30
2024-02-07T07:48:09.290Z,2.20
2024-02-07T07:49:10.262Z,2.20
2024-02-07T07:50:11.302Z,2.20
2024-02-07T07:51:12.222Z,2.20
2024-02-07T07:52:13.264Z,2.20
2024-02-07T07:53:14.267Z,2.10
2024-02-07T07:54:15.208Z,2.10
2024-02-07T07:55:16.300Z,2.10
2024-02-07T07:56:17.282Z,2.10
2024-02-07T07:57:18.212Z,2.10
2024-02-07T07:58:19.312Z,2.10
2024-02-07T07:59:20.292Z,2.10
2024-02-07T08:00:21.420Z,2.10
2024-02-07T08:01:22.423Z,2.10
2024-02-07T08:02:23.303Z,2.10
2024-02-07T08:03:24.188Z,2.10
2024-02-07T08:04:25.333Z,2.10
2024-02-07T08:05:26.326Z,2.10
2024-02-07T08:06:27.232Z,2.10
2024-02-07T08:07:28.311Z,2.10
2024-02-07T08:08:29.360Z,2.10
2024-02-07T08:09:30.248Z,2.10
2024-02-07T08:10:31.278Z,2.10
2024-02-07T08:11:32.289Z,2.10
2024-02-07T08:12:33.240Z,2.00
2024-02-07T08:13:34.292Z,2.00
2024-02-07T08:14:35.168Z,2.00
2024-02-07T08:15:36.420Z,2.00
2024-02-07T08:16:37.208Z,2.00
2024-02-07T08:17:38.282Z,2.10
2024-02-07T08:18:39.236Z,2.10
2024-02-07T08:19:40.337Z,2.10
2024-02-07T08:20:41.260Z,2.10
2024-02-07T08:21:42.240Z,2.10
2024-02-07T08:22:43.272Z,2.10
2024-02-07T08:23:44.253Z,2.10
2024-02-07T08:24:45.239Z,2.10
2024-02-07T08:25:46.300Z,2.10
2024-02-07T08:26:50.098Z,2.10
2024-02-07T08:27:48.250Z,2.10
2024-02-07T08:28:49.361Z,2.10
2024-02-07T08:29:50.191Z,2.10
2024-02-07T08:30:51.390Z,2.10
2024-02-07T08:31:52.261Z,2.10
2024-02-07T08:32:54.322Z,2.10
2024-02-07T08:33:54.423Z,2.10
2024-02-07T08:34:55.747Z,2.10
2024-02-07T08:35:56.285Z,2.10
2024-02-07T08:36:57.231Z,2.10
2024-02-07T08:37:58.254Z,2.20
2024-02-07T08:38:59.224Z,2.20
2024-02-07T08:40:00.252Z,2.20
2024-02-07T08:41:01.290Z,2.20
2024-02-07T08:42:02.217Z,2.20
2024-02-07T08:43:03.217Z,2.20
2024-02-07T08:44:04.293Z,2.30
2024-02-07T08:45:05.392Z,2.30
2024-02-07T08:46:06.198Z,2.30
2024-02-07T08:47:07.287Z,2.30
2024-02-07T08:48:09.059Z,2.30
2024-02-07T08:49:09.300Z,2.40
2024-02-07T08:50:10.346Z,2.40
2024-02-07T08:51:11.220Z,2.40
2024-02-07T08:52:12.242Z,2.40
2024-02-07T08:53:13.230Z,2.40
2024-02-07T08:54:14.253Z,2.40
2024-02-07T08:55:15.300Z,2.40
2024-02-07T08:56:16.252Z,2.40
2024-02-07T08:57:17.239Z,2.40
2024-02-07T08:58:18.338Z,2.40
2024-02-07T08:59:19.268Z,2.40
2024-02-07T09:00:20.409Z,2.40
2024-02-07T09:01:21.336Z,2.40
2024-02-07T09:02:22.389Z,2.40
2024-02-07T09:03:23.332Z,2.40
2024-02-07T09:04:24.402Z,2.40
2024-02-07T09:05:25.478Z,2.40
2024-02-07T09:06:26.497Z,2.40
2024-02-07T09:07:27.434Z,2.40
2024-02-07T09:08:28.411Z,2.40
2024-02-07T09:09:29.429Z,2.40
2024-02-07T09:10:30.367Z,2.40
2024-02-07T09:11:31.331Z,2.50
2024-02-07T09:12:32.265Z,2.50
2024-02-07T09:13:33.350Z,2.50
2024-02-07T09:14:34.276Z,2.50
2024-02-07T09:15:35.435Z,2.50
2024-02-07T09:16:36.315Z,2.50
2024-02-07T09:17:37.327Z,2.50
2024-02-07T09:18:38.424Z,2.50
2024-02-07T09:19:39.345Z,2.50
2024-02-07T09:20:40.295Z,2.50
2024-02-07T09:21:41.332Z,2.50
2024-02-07T09:22:42.453Z,2.50
2024-02-07T09:23:43.310Z,2.50
2024-02-07T09:24:44.309Z,2.50
2024-02-07T09:25:45.414Z,2.50
2024-02-07T09:26:46.311Z,2.60
2024-02-07T09:27:47.304Z,2.60
2024-02-07T09:28:48.341Z,2.60
2024-02-07T09:29:53.463Z,2.60
2024-02-07T09:30:50.504Z,2.60
2024-02-07T09:31:51.366Z,2.60
2024-02-07T09:32:52.385Z,2.60
2024-02-07T09:33:53.376Z,2.60
2024-02-07T09:34:54.389Z,2.60
2024-02-07T09:35:55.430Z,2.60
2024-02-07T09:36:56.340Z,2.60
2024-02-07T09:37:57.446Z,2.50
2024-02-07T09:38:58.324Z,2.50
2024-02-07T09:39:59.328Z,2.60
2024-02-07T09:41:00.419Z,2.60
2024-02-07T09:42:01.508Z,2.60
2024-02-07T09:43:02.346Z,2.60
2024-02-07T09:44:03.410Z,2.60
2024-02-07T09:45:04.539Z,2.60
2024-02-07T09:46:05.324Z,2.60
2024-02-07T09:47:06.348Z,2.60
2024-02-07T09:48:07.440Z,2.60
2024-02-07T09:49:08.445Z,2.70
2024-02-07T09:50:09.396Z,2.70
2024-02-07T09:51:10.330Z,2.70
2024-02-07T09:52:11.322Z,2.70
2024-02-07T09:53:12.513Z,2.70
2024-02-07T09:54:13.375Z,2.70
2024-02-07T09:55:14.394Z,2.70
2024-02-07T09:56:15.350Z,2.80
2024-02-07T09:57:16.364Z,2.80
2024-02-07T09:58:17.373Z,2.80
2024-02-07T09:59:20.944Z,2.80
2024-02-07T10:00:19.554Z,2.80
2024-02-07T10:01:20.419Z,2.80
2024-02-07T10:02:21.353Z,2.70
2024-02-07T10:03:22.394Z,2.70
2024-02-07T10:04:24.610Z,2.80
2024-02-07T10:05:24.645Z,2.80
2024-02-07T10:06:25.543Z,2.80
2024-02-07T10:07:26.397Z,2.80
2024-02-07T10:08:27.389Z,2.90
2024-02-07T10:09:28.340Z,2.90
2024-02-07T10:10:29.618Z,2.90
2024-02-07T10:11:30.412Z,2.90
2024-02-07T10:12:31.392Z,2.90
2024-02-07T10:13:32.389Z,2.90
2024-02-07T10:14:33.385Z,2.90
2024-02-07T10:15:34.602Z,3.00
2024-02-07T10:16:35.449Z,3.00
2024-02-07T10:17:36.502Z,2.90
2024-02-07T10:18:37.631Z,2.90
2024-02-07T10:19:38.382Z,3.00
2024-02-07T10:20:39.352Z,3.00
2024-02-07T10:21:40.408Z,3.00
2024-02-07T10:22:41.744Z,2.90
2024-02-07T10:23:42.377Z,2.90
2024-02-07T10:24:43.351Z,2.90
2024-02-07T10:25:44.437Z,2.90
2024-02-07T10:26:45.357Z,2.90
2024-02-07T10:27:46.403Z,2.90
2024-02-07T10:28:47.431Z,2.90
2024-02-07T10:29:48.416Z,2.90
2024-02-07T10:30:49.567Z,2.90
2024-02-07T10:31:50.399Z,2.90
2024-02-07T10:32:51.436Z,2.90
2024-02-07T10:33:52.501Z,2.90
2024-02-07T10:34:56.325Z,2.90
2024-02-07T10:35:54.490Z,3.00
2024-02-07T10:36:55.415Z,3.00
2024-02-07T10:37:56.713Z,3.00
2024-02-07T10:38:57.395Z,3.00
2024-02-07T10:39:58.395Z,3.00
2024-02-07T10:40:59.510Z,3.10
2024-02-07T10:42:00.416Z,3.10
2024-02-07T10:43:01.400Z,3.10
2024-02-07T10:44:02.460Z,3.10
2024-02-07T10:45:04.285Z,3.10
2024-02-07T10:46:07.794Z,3.00
2024-02-07T10:47:05.532Z,3.00
2024-02-07T10:48:06.473Z,3.00
2024-02-07T10:49:07.638Z,2.90
2024-02-07T10:50:08.570Z,2.90
2024-02-07T10:51:09.433Z,3.00
2024-02-07T10:52:10.530Z,2.90
2024-02-07T10:53:11.466Z,2.90
2024-02-07T10:54:12.423Z,2.90
2024-02-07T10:55:13.600Z,3.00
2024-02-07T10:56:14.511Z,3.00
2024-02-07T10:57:15.640Z,3.00
2024-02-07T10:58:16.485Z,3.00
2024-02-07T10:59:17.473Z,3.00
2024-02-07T11:00:18.785Z,3.00
2024-02-07T11:01:19.616Z,3.00
2024-02-07T11:02:20.491Z,3.00
2024-02-07T11:03:21.422Z,3.00
2024-02-07T11:04:22.537Z,3.00
2024-02-07T11:05:23.782Z,3.00
2024-02-07T11:06:24.571Z,3.00
2024-02-07T11:07:25.658Z,3.00
2024-02-07T11:08:26.499Z,3.10
2024-02-07T11:09:27.444Z,3.10
2024-02-07T11:10:28.521Z,3.10
2024-02-07T11:11:29.777Z,3.10
2024-02-07T11:12:30.444Z,3.10
2024-02-07T11:13:31.442Z,3.10
2024-02-07T11:14:32.450Z,3.10
2024-02-07T11:15:33.697Z,3.20
2024-02-07T11:16:34.448Z,3.20
2024-02-07T11:17:35.422Z,3.10
2024-02-07T11:18:36.662Z,3.10
2024-02-07T11:19:37.514Z,3.10
2024-02-07T11:20:38.434Z,3.10
2024-02-07T11:21:39.450Z,3.10
2024-02-07T11:22:40.561Z,3.10
2024-02-07T11:23:41.446Z,3.20
2024-02-07T11:24:42.459Z,3.20
2024-02-07T11:25:43.458Z,3.20
2024-02-07T11:26:44.475Z,3.20
2024-02-07T11:27:45.427Z,3.20
2024-02-07T11:28:46.494Z,3.20
2024-02-07T11:29:47.459Z,3.20
2024-02-07T11:30:48.694Z,3.20
2024-02-07T11:31:49.494Z,3.20
2024-02-07T11:32:50.508Z,3.20
2024-02-07T11:33:51.489Z,3.10
2024-02-07T11:34:52.575Z,3.10
2024-02-07T11:35:53.674Z,3.10
2024-02-07T11:36:54.470Z,3.10
2024-02-07T11:37:55.512Z,3.20
2024-02-07T11:38:56.504Z,3.20
2024-02-07T11:39:57.463Z,3.20
2024-02-07T11:41:00.986Z,3.20
2024-02-07T11:41:59.478Z,3.30
2024-02-07T11:43:00.470Z,3.30
2024-02-07T11:44:01.560Z,3.20
2024-02-07T11:45:03.432Z,3.20
2024-02-07T11:46:03.475Z,3.20
2024-02-07T11:47:04.849Z,3.30
2024-02-07T11:48:05.523Z,3.20
2024-02-07T11:49:06.527Z,3.20
2024-02-07T11:50:07.789Z,3.10
2024-02-07T11:51:08.471Z,3.00
2024-02-07T11:52:09.464Z,3.00
2024-02-07T11:53:10.649Z,3.00
2024-02-07T11:54:11.472Z,3.00
2024-02-07T11:55:12.521Z,3.00
2024-02-07T11:56:13.573Z,3.00
2024-02-07T11:57:14.505Z,3.10
2024-02-07T11:58:15.530Z,3.10
2024-02-07T11:59:16.524Z,3.10
2024-02-07T12:00:17.784Z,3.00
2024-02-07T12:01:18.562Z,3.00
2024-02-07T12:02:19.619Z,3.00
2024-02-07T12:03:20.487Z,3.10
2024-02-07T12:04:22.685Z,3.10
2024-02-07T12:05:23.212Z,3.00
2024-02-07T12:06:23.547Z,3.00
2024-02-07T12:07:24.546Z,3.00
2024-02-07T12:08:25.526Z,3.00
2024-02-07T12:09:26.578Z,3.00
2024-02-07T12:10:27.596Z,2.90
2024-02-07T12:11:28.521Z,2.90
2024-02-07T12:12:29.666Z,3.00
2024-02-07T12:13:30.564Z,3.00
2024-02-07T12:14:31.526Z,3.00
2024-02-07T12:15:32.834Z,3.10
2024-02-07T12:16:33.601Z,3.10
2024-02-07T12:17:34.507Z,3.00
2024-02-07T12:18:35.564Z,2.90
2024-02-07T12:19:36.635Z,2.80
2024-02-07T12:20:37.741Z,2.80
2024-02-07T12:21:38.492Z,2.90
2024-02-07T12:22:39.544Z,2.90
2024-02-07T12:23:40.509Z,2.50
2024-02-07T12:24:41.512Z,2.50
2024-02-07T12:25:42.597Z,2.50
2024-02-07T12:26:43.489Z,2.50
2024-02-07T12:27:44.700Z,2.60
2024-02-07T12:28:45.590Z,2.60
2024-02-07T12:29:46.548Z,2.60
2024-02-07T12:30:47.704Z,2.60
2024-02-07T12:31:48.617Z,2.60
2024-02-07T12:32:49.567Z,2.60
2024-02-07T12:33:50.630Z,2.60
2024-02-07T12:34:51.592Z,2.70
2024-02-07T12:35:52.557Z,2.70
2024-02-07T12:36:53.523Z,2.70
2024-02-07T12:37:54.523Z,2.70
2024-02-07T12:38:55.569Z,2.70
2024-02-07T12:39:56.534Z,2.70
2024-02-07T12:40:57.774Z,2.70
2024-02-07T12:41:58.501Z,2.80
2024-02-07T12:42:59.549Z,2.90
2024-02-07T12:44:00.851Z,2.90
2024-02-07T12:45:02.117Z,2.80
2024-02-07T12:46:02.682Z,2.80
2024-02-07T12:47:03.601Z,2.80
2024-02-07T12:48:04.671Z,2.80
2024-02-07T12:49:05.637Z,2.90
2024-02-07T12:50:06.610Z,2.90
2024-02-07T12:51:07.550Z,2.90
2024-02-07T12:52:08.569Z,2.90
2024-02-07T12:53:09.573Z,2.90
2024-02-07T12:54:10.534Z,2.90
2024-02-07T12:55:11.546Z,3.00
2024-02-07T12:56:12.778Z,3.00
2024-02-07T12:57:13.531Z,3.00
2024-02-07T12:58:14.570Z,3.00
2024-02-07T12:59:15.572Z,3.00
2024-02-07T13:00:16.736Z,3.00
2024-02-07T13:01:17.641Z,2.90
2024-02-07T13:02:18.786Z,2.90
2024-02-07T13:03:19.583Z,3.00
2024-02-07T13:04:20.641Z,3.00
2024-02-07T13:05:21.756Z,3.00
2024-02-07T13:06:22.593Z,3.00
2024-02-07T13:07:26.918Z,3.00
2024-02-07T13:08:24.527Z,3.00
2024-02-07T13:09:25.528Z,3.10
2024-02-07T13:10:26.727Z,3.20
2024-02-07T13:11:27.564Z,3.20
2024-02-07T13:12:30.862Z,3.20
2024-02-07T13:13:29.710Z,3.20
2024-02-07T13:14:30.579Z,3.30
2024-02-07T13:15:31.765Z,3.30
2024-02-07T13:16:32.586Z,3.30
2024-02-07T13:17:33.666Z,3.30
2024-02-07T13:18:34.718Z,3.30
2024-02-07T13:19:35.606Z,3.40
2024-02-07T13:20:36.620Z,3.40
2024-02-07T13:21:37.560Z,3.40
2024-02-07T13:22:38.657Z,3.40
2024-02-07T13:23:39.899Z,3.40
2024-02-07T13:24:40.545Z,3.40
2024-02-07T13:25:41.637Z,3.40
2024-02-07T13:26:42.605Z,3.40
2024-02-07T13:27:43.560Z,3.40
2024-02-07T13:28:45.649Z,3.40
2024-02-07T13:29:45.566Z,3.50
2024-02-07T13:30:46.778Z,3.50
2024-02-07T13:31:47.636Z,3.40
2024-02-07T13:32:48.754Z,3.40
2024-02-07T13:33:49.616Z,3.30